sensor_id;sensor_type;location;lat;lon;timestamp;P1;durP1;ratioP1;P2;durP2;ratioP2
71106;SDS011;58763;47.982;11.516;2023-12-07T00:01:53;15.40;;;8.95;;
71106;SDS011;58763;47.982;11.516;2023-12-07T00:04:19;17.05;;;8.93;;
71106;SDS011;58763;47.982;11.516;2023-12-07T00:06:45;14.35;;;8.88;;
71106;SDS011;58763;47.982;11.516;2023-12-07T00:09:10;15.38;;;8.88;;
71106;SDS011;58763;47.982;11.516;2023-12-07T00:11:36;16.92;;;9.55;;
71106;SDS011;58763;47.982;11.516;2023-12-07T00:14:01;15.50;;;9.15;;
71106;SDS011;58763;47.982;11.516;2023-12-07T00:16:27;16.38;;;9.23;;
71106;SDS011;58763;47.982;11.516;2023-12-07T00:18:52;15.60;;;9.10;;
71106;SDS011;58763;47.982;11.516;2023-12-07T00:21:18;15.95;;;8.82;;
71106;SDS011;58763;47.982;11.516;2023-12-07T00:23:44;15.40;;;8.63;;
71106;SDS011;58763;47.982;11.516;2023-12-07T00:26:09;15.95;;;8.85;;
71106;SDS011;58763;47.982;11.516;2023-12-07T00:28:36;16.20;;;8.65;;
71106;SDS011;58763;47.982;11.516;2023-12-07T00:31:01;15.15;;;8.52;;
71106;SDS011;58763;47.982;11.516;2023-12-07T00:33:27;17.15;;;9.40;;
71106;SDS011;58763;47.982;11.516;2023-12-07T00:35:53;17.58;;;9.25;;
71106;SDS011;58763;47.982;11.516;2023-12-07T00:38:18;15.10;;;8.52;;
71106;SDS011;58763;47.982;11.516;2023-12-07T00:40:44;16.30;;;8.95;;
71106;SDS011;58763;47.982;11.516;2023-12-07T00:43:09;15.98;;;8.82;;
71106;SDS011;58763;47.982;11.516;2023-12-07T00:45:35;19.55;;;9.90;;
71106;SDS011;58763;47.982;11.516;2023-12-07T00:48:01;16.85;;;9.52;;
71106;SDS011;58763;47.982;11.516;2023-12-07T00:50:26;16.98;;;9.32;;
71106;SDS011;58763;47.982;11.516;2023-12-07T00:52:52;16.08;;;9.27;;
71106;SDS011;58763;47.982;11.516;2023-12-07T00:55:17;17.92;;;9.93;;
71106;SDS011;58763;47.982;11.516;2023-12-07T00:57:43;16.70;;;9.23;;
71106;SDS011;58763;47.982;11.516;2023-12-07T01:00:09;17.38;;;9.52;;
71106;SDS011;58763;47.982;11.516;2023-12-07T01:02:36;16.30;;;9.38;;
71106;SDS011;58763;47.982;11.516;2023-12-07T01:05:01;17.77;;;9.77;;
71106;SDS011;58763;47.982;11.516;2023-12-07T01:07:27;17.23;;;9.57;;
71106;SDS011;58763;47.982;11.516;2023-12-07T01:09:53;16.27;;;8.88;;
71106;SDS011;58763;47.982;11.516;2023-12-07T01:12:18;18.15;;;9.02;;
71106;SDS011;58763;47.982;11.516;2023-12-07T01:14:45;16.98;;;8.98;;
71106;SDS011;58763;47.982;11.516;2023-12-07T01:17:11;17.00;;;8.32;;
71106;SDS011;58763;47.982;11.516;2023-12-07T01:19:37;16.48;;;8.85;;
71106;SDS011;58763;47.982;11.516;2023-12-07T01:22:02;13.77;;;8.10;;
71106;SDS011;58763;47.982;11.516;2023-12-07T01:24:28;15.02;;;8.48;;
71106;SDS011;58763;47.982;11.516;2023-12-07T01:26:54;18.60;;;9.43;;
71106;SDS011;58763;47.982;11.516;2023-12-07T01:29:20;18.65;;;9.57;;
71106;SDS011;58763;47.982;11.516;2023-12-07T01:31:45;16.30;;;9.13;;
71106;SDS011;58763;47.982;11.516;2023-12-07T01:34:11;17.30;;;9.80;;
71106;SDS011;58763;47.982;11.516;2023-12-07T01:36:38;17.23;;;9.63;;
71106;SDS011;58763;47.982;11.516;2023-12-07T01:39:05;19.13;;;10.50;;
71106;SDS011;58763;47.982;11.516;2023-12-07T01:41:31;17.23;;;9.48;;
71106;SDS011;58763;47.982;11.516;2023-12-07T01:43:57;16.85;;;9.23;;
71106;SDS011;58763;47.982;11.516;2023-12-07T01:46:23;19.20;;;9.93;;
71106;SDS011;58763;47.982;11.516;2023-12-07T01:48:49;16.88;;;9.27;;
71106;SDS011;58763;47.982;11.516;2023-12-07T01:51:15;18.13;;;9.52;;
71106;SDS011;58763;47.982;11.516;2023-12-07T01:53:42;19.80;;;9.30;;
71106;SDS011;58763;47.982;11.516;2023-12-07T01:56:08;15.10;;;8.85;;
71106;SDS011;58763;47.982;11.516;2023-12-07T01:58:35;17.65;;;9.10;;
71106;SDS011;58763;47.982;11.516;2023-12-07T02:01:02;17.42;;;8.60;;
71106;SDS011;58763;47.982;11.516;2023-12-07T02:03:29;15.68;;;8.75;;
71106;SDS011;58763;47.982;11.516;2023-12-07T02:05:56;17.88;;;9.13;;
71106;SDS011;58763;47.982;11.516;2023-12-07T02:08:23;16.38;;;8.57;;
71106;SDS011;58763;47.982;11.516;2023-12-07T02:10:49;15.95;;;8.35;;
71106;SDS011;58763;47.982;11.516;2023-12-07T02:13:15;15.88;;;8.70;;
71106;SDS011;58763;47.982;11.516;2023-12-07T02:15:40;15.32;;;8.57;;
71106;SDS011;58763;47.982;11.516;2023-12-07T02:18:14;14.82;;;8.35;;
71106;SDS011;58763;47.982;11.516;2023-12-07T02:23:44;14.30;;;8.20;;
71106;SDS011;58763;47.982;11.516;2023-12-07T02:26:12;14.80;;;8.05;;
71106;SDS011;58763;47.982;11.516;2023-12-07T02:28:42;15.13;;;8.00;;
71106;SDS011;58763;47.982;11.516;2023-12-07T02:31:08;17.15;;;7.97;;
71106;SDS011;58763;47.982;11.516;2023-12-07T02:33:34;14.80;;;8.15;;
71106;SDS011;58763;47.982;11.516;2023-12-07T02:36:00;16.25;;;8.95;;
71106;SDS011;58763;47.982;11.516;2023-12-07T02:38:26;16.45;;;8.52;;
71106;SDS011;58763;47.982;11.516;2023-12-07T02:40:54;15.30;;;8.70;;
71106;SDS011;58763;47.982;11.516;2023-12-07T02:43:21;15.70;;;8.77;;
71106;SDS011;58763;47.982;11.516;2023-12-07T02:45:48;14.80;;;8.30;;
71106;SDS011;58763;47.982;11.516;2023-12-07T02:48:14;16.42;;;8.35;;
71106;SDS011;58763;47.982;11.516;2023-12-07T02:50:40;14.25;;;7.85;;
71106;SDS011;58763;47.982;11.516;2023-12-07T02:53:06;15.30;;;8.93;;
71106;SDS011;58763;47.982;11.516;2023-12-07T02:55:32;15.43;;;8.30;;
71106;SDS011;58763;47.982;11.516;2023-12-07T02:57:58;13.95;;;7.80;;
71106;SDS011;58763;47.982;11.516;2023-12-07T03:00:24;13.82;;;7.82;;
71106;SDS011;58763;47.982;11.516;2023-12-07T03:02:50;15.02;;;8.02;;
71106;SDS011;58763;47.982;11.516;2023-12-07T03:05:16;15.93;;;8.23;;
71106;SDS011;58763;47.982;11.516;2023-12-07T03:07:42;16.45;;;8.23;;
71106;SDS011;58763;47.982;11.516;2023-12-07T03:10:07;15.75;;;8.77;;
71106;SDS011;58763;47.982;11.516;2023-12-07T03:12:33;15.57;;;8.43;;
71106;SDS011;58763;47.982;11.516;2023-12-07T03:14:59;14.88;;;8.77;;
71106;SDS011;58763;47.982;11.516;2023-12-07T03:17:24;15.85;;;8.27;;
71106;SDS011;58763;47.982;11.516;2023-12-07T03:19:50;15.15;;;8.13;;
71106;SDS011;58763;47.982;11.516;2023-12-07T03:22:15;15.63;;;8.57;;
71106;SDS011;58763;47.982;11.516;2023-12-07T03:24:45;14.00;;;7.90;;
71106;SDS011;58763;47.982;11.516;2023-12-07T03:27:12;16.95;;;9.80;;
71106;SDS011;58763;47.982;11.516;2023-12-07T03:29:38;18.58;;;10.35;;
71106;SDS011;58763;47.982;11.516;2023-12-07T03:32:04;15.00;;;8.32;;
71106;SDS011;58763;47.982;11.516;2023-12-07T03:34:30;14.27;;;7.72;;
71106;SDS011;58763;47.982;11.516;2023-12-07T03:36:56;14.60;;;7.57;;
71106;SDS011;58763;47.982;11.516;2023-12-07T03:39:21;14.23;;;8.05;;
71106;SDS011;58763;47.982;11.516;2023-12-07T03:41:48;15.15;;;8.35;;
71106;SDS011;58763;47.982;11.516;2023-12-07T03:44:14;14.32;;;8.23;;
71106;SDS011;58763;47.982;11.516;2023-12-07T03:46:40;14.18;;;7.60;;
71106;SDS011;58763;47.982;11.516;2023-12-07T03:49:06;14.32;;;8.02;;
71106;SDS011;58763;47.982;11.516;2023-12-07T03:51:32;14.00;;;7.95;;
71106;SDS011;58763;47.982;11.516;2023-12-07T03:53:57;16.38;;;8.10;;
71106;SDS011;58763;47.982;11.516;2023-12-07T03:56:26;14.15;;;7.43;;
71106;SDS011;58763;47.982;11.516;2023-12-07T03:58:53;16.00;;;7.50;;
71106;SDS011;58763;47.982;11.516;2023-12-07T04:01:23;14.23;;;7.47;;
71106;SDS011;58763;47.982;11.516;2023-12-07T04:03:53;13.35;;;7.45;;
71106;SDS011;58763;47.982;11.516;2023-12-07T04:06:21;13.43;;;7.60;;
71106;SDS011;58763;47.982;11.516;2023-12-07T04:08:47;13.13;;;7.07;;
71106;SDS011;58763;47.982;11.516;2023-12-07T04:11:14;12.00;;;6.30;;
71106;SDS011;58763;47.982;11.516;2023-12-07T04:13:40;11.68;;;6.53;;
71106;SDS011;58763;47.982;11.516;2023-12-07T04:16:07;11.30;;;6.57;;
71106;SDS011;58763;47.982;11.516;2023-12-07T04:18:33;12.65;;;6.78;;
71106;SDS011;58763;47.982;11.516;2023-12-07T04:20:59;12.90;;;7.43;;
71106;SDS011;58763;47.982;11.516;2023-12-07T04:23:25;13.73;;;7.38;;
71106;SDS011;58763;47.982;11.516;2023-12-07T04:25:50;13.57;;;7.30;;
71106;SDS011;58763;47.982;11.516;2023-12-07T04:28:16;15.23;;;7.55;;
71106;SDS011;58763;47.982;11.516;2023-12-07T04:30:41;15.70;;;7.90;;
71106;SDS011;58763;47.982;11.516;2023-12-07T04:33:07;14.73;;;8.10;;
71106;SDS011;58763;47.982;11.516;2023-12-07T04:35:34;16.42;;;9.48;;
71106;SDS011;58763;47.982;11.516;2023-12-07T04:38:00;17.33;;;9.73;;
71106;SDS011;58763;47.982;11.516;2023-12-07T04:40:25;18.27;;;9.40;;
71106;SDS011;58763;47.982;11.516;2023-12-07T04:42:51;16.58;;;8.88;;
71106;SDS011;58763;47.982;11.516;2023-12-07T04:45:17;17.23;;;8.77;;
71106;SDS011;58763;47.982;11.516;2023-12-07T04:47:43;15.30;;;8.38;;
71106;SDS011;58763;47.982;11.516;2023-12-07T04:50:09;14.05;;;8.32;;
71106;SDS011;58763;47.982;11.516;2023-12-07T04:52:37;18.10;;;8.73;;
71106;SDS011;58763;47.982;11.516;2023-12-07T04:55:03;14.88;;;7.97;;
71106;SDS011;58763;47.982;11.516;2023-12-07T04:57:32;15.45;;;8.30;;
71106;SDS011;58763;47.982;11.516;2023-12-07T05:00:01;16.80;;;8.38;;
71106;SDS011;58763;47.982;11.516;2023-12-07T05:02:31;14.95;;;8.38;;
71106;SDS011;58763;47.982;11.516;2023-12-07T05:04:58;16.38;;;8.85;;
71106;SDS011;58763;47.982;11.516;2023-12-07T05:07:23;16.52;;;8.30;;
71106;SDS011;58763;47.982;11.516;2023-12-07T05:09:49;16.45;;;8.80;;
71106;SDS011;58763;47.982;11.516;2023-12-07T05:12:16;14.57;;;8.00;;
71106;SDS011;58763;47.982;11.516;2023-12-07T05:14:42;18.17;;;8.45;;
71106;SDS011;58763;47.982;11.516;2023-12-07T05:17:08;14.65;;;8.02;;
71106;SDS011;58763;47.982;11.516;2023-12-07T05:19:33;15.75;;;8.32;;
71106;SDS011;58763;47.982;11.516;2023-12-07T05:21:59;18.00;;;9.00;;
71106;SDS011;58763;47.982;11.516;2023-12-07T05:24:25;17.33;;;9.43;;
71106;SDS011;58763;47.982;11.516;2023-12-07T05:26:50;16.45;;;8.57;;
71106;SDS011;58763;47.982;11.516;2023-12-07T05:29:17;15.63;;;8.68;;
71106;SDS011;58763;47.982;11.516;2023-12-07T05:31:43;16.98;;;8.90;;
71106;SDS011;58763;47.982;11.516;2023-12-07T05:34:09;15.60;;;8.57;;
71106;SDS011;58763;47.982;11.516;2023-12-07T05:36:35;16.85;;;8.60;;
71106;SDS011;58763;47.982;11.516;2023-12-07T05:39:01;16.25;;;8.98;;
71106;SDS011;58763;47.982;11.516;2023-12-07T05:41:26;16.88;;;9.55;;
71106;SDS011;58763;47.982;11.516;2023-12-07T05:43:52;17.40;;;9.45;;
71106;SDS011;58763;47.982;11.516;2023-12-07T05:46:21;17.17;;;9.40;;
71106;SDS011;58763;47.982;11.516;2023-12-07T05:48:46;20.67;;;9.85;;
71106;SDS011;58763;47.982;11.516;2023-12-07T05:51:13;19.25;;;9.95;;
71106;SDS011;58763;47.982;11.516;2023-12-07T05:53:40;16.98;;;9.30;;
71106;SDS011;58763;47.982;11.516;2023-12-07T05:56:06;16.02;;;8.55;;
71106;SDS011;58763;47.982;11.516;2023-12-07T05:58:31;14.13;;;8.30;;
71106;SDS011;58763;47.982;11.516;2023-12-07T06:00:58;15.90;;;8.35;;
71106;SDS011;58763;47.982;11.516;2023-12-07T06:03:25;16.73;;;8.98;;
71106;SDS011;58763;47.982;11.516;2023-12-07T06:05:51;16.17;;;8.63;;
71106;SDS011;58763;47.982;11.516;2023-12-07T06:08:17;15.20;;;8.43;;
71106;SDS011;58763;47.982;11.516;2023-12-07T06:10:43;16.50;;;9.18;;
71106;SDS011;58763;47.982;11.516;2023-12-07T06:13:10;19.35;;;9.95;;
71106;SDS011;58763;47.982;11.516;2023-12-07T06:15:37;23.63;;;11.30;;
71106;SDS011;58763;47.982;11.516;2023-12-07T06:18:03;19.67;;;11.23;;
71106;SDS011;58763;47.982;11.516;2023-12-07T06:20:28;20.77;;;11.20;;
71106;SDS011;58763;47.982;11.516;2023-12-07T06:22:54;21.33;;;10.43;;
71106;SDS011;58763;47.982;11.516;2023-12-07T06:25:22;19.90;;;11.23;;
71106;SDS011;58763;47.982;11.516;2023-12-07T06:27:48;23.05;;;13.13;;
71106;SDS011;58763;47.982;11.516;2023-12-07T06:30:13;24.05;;;13.75;;
71106;SDS011;58763;47.982;11.516;2023-12-07T06:32:39;20.08;;;12.40;;
71106;SDS011;58763;47.982;11.516;2023-12-07T06:35:05;18.42;;;10.57;;
71106;SDS011;58763;47.982;11.516;2023-12-07T06:37:31;19.48;;;10.55;;
71106;SDS011;58763;47.982;11.516;2023-12-07T06:39:57;21.77;;;11.50;;
71106;SDS011;58763;47.982;11.516;2023-12-07T06:42:25;21.98;;;10.30;;
71106;SDS011;58763;47.982;11.516;2023-12-07T06:44:51;19.42;;;10.40;;
71106;SDS011;58763;47.982;11.516;2023-12-07T06:47:17;18.85;;;10.07;;
71106;SDS011;58763;47.982;11.516;2023-12-07T06:49:43;23.42;;;11.68;;
71106;SDS011;58763;47.982;11.516;2023-12-07T06:52:11;26.38;;;13.07;;
71106;SDS011;58763;47.982;11.516;2023-12-07T06:54:37;27.77;;;13.18;;
71106;SDS011;58763;47.982;11.516;2023-12-07T06:57:06;23.17;;;12.07;;
71106;SDS011;58763;47.982;11.516;2023-12-07T06:59:32;20.55;;;10.73;;
71106;SDS011;58763;47.982;11.516;2023-12-07T07:01:59;19.80;;;10.40;;
71106;SDS011;58763;47.982;11.516;2023-12-07T07:04:25;20.50;;;10.60;;
71106;SDS011;58763;47.982;11.516;2023-12-07T07:06:50;19.35;;;10.43;;
71106;SDS011;58763;47.982;11.516;2023-12-07T07:09:17;19.40;;;10.57;;
71106;SDS011;58763;47.982;11.516;2023-12-07T07:11:47;19.45;;;10.15;;
71106;SDS011;58763;47.982;11.516;2023-12-07T07:14:13;20.05;;;10.15;;
71106;SDS011;58763;47.982;11.516;2023-12-07T07:16:39;22.25;;;10.98;;
71106;SDS011;58763;47.982;11.516;2023-12-07T07:19:05;24.27;;;12.10;;
71106;SDS011;58763;47.982;11.516;2023-12-07T07:21:31;23.35;;;11.45;;
71106;SDS011;58763;47.982;11.516;2023-12-07T07:23:57;20.52;;;10.50;;
71106;SDS011;58763;47.982;11.516;2023-12-07T07:26:23;22.52;;;11.43;;
71106;SDS011;58763;47.982;11.516;2023-12-07T07:28:50;21.88;;;11.23;;
71106;SDS011;58763;47.982;11.516;2023-12-07T07:31:17;20.55;;;10.13;;
71106;SDS011;58763;47.982;11.516;2023-12-07T07:33:43;19.10;;;9.50;;
71106;SDS011;58763;47.982;11.516;2023-12-07T07:36:09;16.83;;;8.27;;
71106;SDS011;58763;47.982;11.516;2023-12-07T07:38:36;14.85;;;7.53;;
71106;SDS011;58763;47.982;11.516;2023-12-07T07:41:03;16.77;;;8.20;;
71106;SDS011;58763;47.982;11.516;2023-12-07T07:43:29;16.00;;;8.55;;
71106;SDS011;58763;47.982;11.516;2023-12-07T07:45:55;15.75;;;8.50;;
71106;SDS011;58763;47.982;11.516;2023-12-07T07:48:21;16.63;;;8.93;;
71106;SDS011;58763;47.982;11.516;2023-12-07T07:50:47;16.13;;;8.25;;
71106;SDS011;58763;47.982;11.516;2023-12-07T07:53:13;18.85;;;8.50;;
71106;SDS011;58763;47.982;11.516;2023-12-07T07:55:39;15.07;;;7.63;;
71106;SDS011;58763;47.982;11.516;2023-12-07T07:58:05;17.17;;;8.95;;
71106;SDS011;58763;47.982;11.516;2023-12-07T08:00:30;17.13;;;9.27;;
71106;SDS011;58763;47.982;11.516;2023-12-07T08:02:58;15.70;;;7.97;;
71106;SDS011;58763;47.982;11.516;2023-12-07T08:05:24;16.65;;;8.52;;
71106;SDS011;58763;47.982;11.516;2023-12-07T08:07:50;17.13;;;9.10;;
71106;SDS011;58763;47.982;11.516;2023-12-07T08:10:16;16.08;;;9.07;;
71106;SDS011;58763;47.982;11.516;2023-12-07T08:12:42;18.33;;;8.68;;
71106;SDS011;58763;47.982;11.516;2023-12-07T08:15:08;18.10;;;9.00;;
71106;SDS011;58763;47.982;11.516;2023-12-07T08:17:38;18.73;;;9.40;;
71106;SDS011;58763;47.982;11.516;2023-12-07T08:20:09;16.20;;;8.50;;
71106;SDS011;58763;47.982;11.516;2023-12-07T08:22:36;21.17;;;10.32;;
71106;SDS011;58763;47.982;11.516;2023-12-07T08:25:03;24.75;;;13.30;;
71106;SDS011;58763;47.982;11.516;2023-12-07T08:27:33;23.83;;;12.23;;
71106;SDS011;58763;47.982;11.516;2023-12-07T08:30:01;23.40;;;13.80;;
71106;SDS011;58763;47.982;11.516;2023-12-07T08:32:26;19.30;;;10.85;;
71106;SDS011;58763;47.982;11.516;2023-12-07T08:34:52;14.98;;;8.43;;
71106;SDS011;58763;47.982;11.516;2023-12-07T08:37:19;16.70;;;8.30;;
71106;SDS011;58763;47.982;11.516;2023-12-07T08:39:50;17.65;;;8.93;;
71106;SDS011;58763;47.982;11.516;2023-12-07T08:42:15;16.00;;;8.50;;
71106;SDS011;58763;47.982;11.516;2023-12-07T08:44:42;16.42;;;8.30;;
71106;SDS011;58763;47.982;11.516;2023-12-07T08:47:08;14.30;;;7.75;;
71106;SDS011;58763;47.982;11.516;2023-12-07T08:49:34;14.00;;;7.43;;
71106;SDS011;58763;47.982;11.516;2023-12-07T08:51:59;14.70;;;7.90;;
71106;SDS011;58763;47.982;11.516;2023-12-07T08:54:25;14.80;;;7.85;;
71106;SDS011;58763;47.982;11.516;2023-12-07T08:56:51;16.85;;;7.85;;
71106;SDS011;58763;47.982;11.516;2023-12-07T08:59:16;13.10;;;7.25;;
71106;SDS011;58763;47.982;11.516;2023-12-07T09:01:42;14.13;;;7.57;;
71106;SDS011;58763;47.982;11.516;2023-12-07T09:04:08;12.85;;;7.45;;
71106;SDS011;58763;47.982;11.516;2023-12-07T09:06:34;14.07;;;7.57;;
71106;SDS011;58763;47.982;11.516;2023-12-07T09:09:02;13.95;;;7.13;;
71106;SDS011;58763;47.982;11.516;2023-12-07T09:11:30;13.30;;;6.95;;
71106;SDS011;58763;47.982;11.516;2023-12-07T09:13:56;11.32;;;6.70;;
71106;SDS011;58763;47.982;11.516;2023-12-07T09:16:22;12.02;;;6.30;;
71106;SDS011;58763;47.982;11.516;2023-12-07T09:18:48;9.48;;;5.75;;
71106;SDS011;58763;47.982;11.516;2023-12-07T09:21:14;12.65;;;6.97;;
71106;SDS011;58763;47.982;11.516;2023-12-07T09:23:39;10.20;;;5.70;;
71106;SDS011;58763;47.982;11.516;2023-12-07T09:26:04;10.50;;;5.68;;
71106;SDS011;58763;47.982;11.516;2023-12-07T09:28:31;11.00;;;6.13;;
71106;SDS011;58763;47.982;11.516;2023-12-07T09:30:58;11.43;;;6.00;;
71106;SDS011;58763;47.982;11.516;2023-12-07T09:33:24;12.00;;;6.07;;
71106;SDS011;58763;47.982;11.516;2023-12-07T09:35:50;11.13;;;6.07;;
71106;SDS011;58763;47.982;11.516;2023-12-07T09:38:16;10.77;;;6.03;;
71106;SDS011;58763;47.982;11.516;2023-12-07T09:40:43;9.20;;;5.05;;
71106;SDS011;58763;47.982;11.516;2023-12-07T09:43:08;10.75;;;5.30;;
71106;SDS011;58763;47.982;11.516;2023-12-07T09:45:34;10.75;;;5.47;;
71106;SDS011;58763;47.982;11.516;2023-12-07T09:48:00;9.35;;;5.25;;
71106;SDS011;58763;47.982;11.516;2023-12-07T09:50:26;9.55;;;5.40;;
71106;SDS011;58763;47.982;11.516;2023-12-07T09:52:57;9.90;;;5.22;;
71106;SDS011;58763;47.982;11.516;2023-12-07T09:55:24;9.32;;;5.18;;
71106;SDS011;58763;47.982;11.516;2023-12-07T09:57:50;10.77;;;5.45;;
71106;SDS011;58763;47.982;11.516;2023-12-07T10:00:16;9.25;;;5.35;;
71106;SDS011;58763;47.982;11.516;2023-12-07T10:02:44;10.02;;;5.80;;
71106;SDS011;58763;47.982;11.516;2023-12-07T10:05:12;11.43;;;6.20;;
71106;SDS011;58763;47.982;11.516;2023-12-07T10:07:40;10.85;;;5.55;;
71106;SDS011;58763;47.982;11.516;2023-12-07T10:10:06;9.40;;;5.47;;
71106;SDS011;58763;47.982;11.516;2023-12-07T10:12:33;9.55;;;5.18;;
71106;SDS011;58763;47.982;11.516;2023-12-07T10:15:00;10.27;;;5.20;;
71106;SDS011;58763;47.982;11.516;2023-12-07T10:17:47;9.15;;;5.40;;
71106;SDS011;58763;47.982;11.516;2023-12-07T10:20:16;10.48;;;5.40;;
71106;SDS011;58763;47.982;11.516;2023-12-07T10:22:43;8.45;;;4.72;;
71106;SDS011;58763;47.982;11.516;2023-12-07T10:25:12;9.50;;;5.18;;
71106;SDS011;58763;47.982;11.516;2023-12-07T10:27:38;9.50;;;5.00;;
71106;SDS011;58763;47.982;11.516;2023-12-07T10:30:06;6.75;;;4.15;;
71106;SDS011;58763;47.982;11.516;2023-12-07T10:32:38;7.57;;;4.25;;
71106;SDS011;58763;47.982;11.516;2023-12-07T10:35:07;9.32;;;4.40;;
71106;SDS011;58763;47.982;11.516;2023-12-07T10:37:33;8.18;;;4.32;;
71106;SDS011;58763;47.982;11.516;2023-12-07T10:39:59;9.50;;;4.88;;
71106;SDS011;58763;47.982;11.516;2023-12-07T10:42:25;7.63;;;4.20;;
71106;SDS011;58763;47.982;11.516;2023-12-07T10:44:53;7.55;;;4.20;;
71106;SDS011;58763;47.982;11.516;2023-12-07T10:47:23;7.70;;;4.00;;
71106;SDS011;58763;47.982;11.516;2023-12-07T10:49:51;7.53;;;4.38;;
71106;SDS011;58763;47.982;11.516;2023-12-07T10:52:20;6.82;;;3.78;;
71106;SDS011;58763;47.982;11.516;2023-12-07T10:55:54;7.75;;;4.55;;
71106;SDS011;58763;47.982;11.516;2023-12-07T10:57:52;9.45;;;5.88;;
71106;SDS011;58763;47.982;11.516;2023-12-07T11:00:20;7.90;;;5.05;;
71106;SDS011;58763;47.982;11.516;2023-12-07T11:02:50;7.07;;;3.95;;
71106;SDS011;58763;47.982;11.516;2023-12-07T11:05:17;7.40;;;4.22;;
71106;SDS011;58763;47.982;11.516;2023-12-07T11:08:00;7.93;;;4.25;;
71106;SDS011;58763;47.982;11.516;2023-12-07T11:10:36;7.20;;;4.07;;
71106;SDS011;58763;47.982;11.516;2023-12-07T11:16:00;8.63;;;4.18;;
71106;SDS011;58763;47.982;11.516;2023-12-07T11:18:26;7.35;;;3.95;;
71106;SDS011;58763;47.982;11.516;2023-12-07T11:20:54;8.05;;;3.90;;
71106;SDS011;58763;47.982;11.516;2023-12-07T11:23:21;5.80;;;2.97;;
71106;SDS011;58763;47.982;11.516;2023-12-07T11:25:48;4.80;;;2.30;;
71106;SDS011;58763;47.982;11.516;2023-12-07T11:28:18;4.75;;;2.47;;
71106;SDS011;58763;47.982;11.516;2023-12-07T11:31:00;6.72;;;3.60;;
71106;SDS011;58763;47.982;11.516;2023-12-07T11:33:28;7.03;;;4.22;;
71106;SDS011;58763;47.982;11.516;2023-12-07T11:36:05;8.23;;;4.47;;
71106;SDS011;58763;47.982;11.516;2023-12-07T11:38:32;8.80;;;4.57;;
71106;SDS011;58763;47.982;11.516;2023-12-07T11:40:57;6.88;;;4.10;;
71106;SDS011;58763;47.982;11.516;2023-12-07T11:45:58;6.82;;;3.63;;
71106;SDS011;58763;47.982;11.516;2023-12-07T11:48:25;5.88;;;2.92;;
71106;SDS011;58763;47.982;11.516;2023-12-07T11:53:24;7.55;;;3.40;;
71106;SDS011;58763;47.982;11.516;2023-12-07T11:56:09;7.07;;;3.30;;
71106;SDS011;58763;47.982;11.516;2023-12-07T11:58:38;5.07;;;2.67;;
71106;SDS011;58763;47.982;11.516;2023-12-07T12:01:03;4.82;;;2.75;;
71106;SDS011;58763;47.982;11.516;2023-12-07T12:03:30;6.38;;;3.20;;
71106;SDS011;58763;47.982;11.516;2023-12-07T12:06:05;5.70;;;3.15;;
71106;SDS011;58763;47.982;11.516;2023-12-07T12:08:33;4.72;;;2.45;;
71106;SDS011;58763;47.982;11.516;2023-12-07T12:10:59;6.90;;;3.33;;
71106;SDS011;58763;47.982;11.516;2023-12-07T12:13:35;4.75;;;2.30;;
71106;SDS011;58763;47.982;11.516;2023-12-07T12:16:02;4.50;;;2.17;;
71106;SDS011;58763;47.982;11.516;2023-12-07T12:18:28;5.50;;;2.50;;
71106;SDS011;58763;47.982;11.516;2023-12-07T12:20:54;5.65;;;2.72;;
71106;SDS011;58763;47.982;11.516;2023-12-07T12:23:20;5.70;;;2.88;;
71106;SDS011;58763;47.982;11.516;2023-12-07T12:25:46;5.95;;;3.05;;
71106;SDS011;58763;47.982;11.516;2023-12-07T12:28:17;4.95;;;2.30;;
71106;SDS011;58763;47.982;11.516;2023-12-07T12:30:46;4.15;;;2.20;;
71106;SDS011;58763;47.982;11.516;2023-12-07T12:33:13;6.07;;;2.85;;
71106;SDS011;58763;47.982;11.516;2023-12-07T12:35:39;5.00;;;2.42;;
71106;SDS011;58763;47.982;11.516;2023-12-07T12:38:09;4.95;;;2.30;;
71106;SDS011;58763;47.982;11.516;2023-12-07T12:40:36;4.43;;;2.30;;
71106;SDS011;58763;47.982;11.516;2023-12-07T12:43:02;4.55;;;2.40;;
71106;SDS011;58763;47.982;11.516;2023-12-07T12:45:28;4.00;;;2.20;;
71106;SDS011;58763;47.982;11.516;2023-12-07T12:47:53;4.15;;;1.98;;
71106;SDS011;58763;47.982;11.516;2023-12-07T12:50:39;4.47;;;1.90;;
71106;SDS011;58763;47.982;11.516;2023-12-07T12:53:06;5.47;;;1.90;;
71106;SDS011;58763;47.982;11.516;2023-12-07T12:55:35;4.07;;;2.00;;
71106;SDS011;58763;47.982;11.516;2023-12-07T12:58:09;7.72;;;2.25;;
71106;SDS011;58763;47.982;11.516;2023-12-07T13:00:38;4.28;;;2.22;;
71106;SDS011;58763;47.982;11.516;2023-12-07T13:05:33;4.22;;;2.22;;
71106;SDS011;58763;47.982;11.516;2023-12-07T13:08:03;4.55;;;2.70;;
71106;SDS011;58763;47.982;11.516;2023-12-07T13:10:29;6.45;;;2.75;;
71106;SDS011;58763;47.982;11.516;2023-12-07T13:12:56;5.05;;;2.55;;
71106;SDS011;58763;47.982;11.516;2023-12-07T13:15:22;5.30;;;3.10;;
71106;SDS011;58763;47.982;11.516;2023-12-07T13:17:47;5.80;;;3.13;;
71106;SDS011;58763;47.982;11.516;2023-12-07T13:20:13;5.53;;;2.88;;
71106;SDS011;58763;47.982;11.516;2023-12-07T13:22:42;5.07;;;2.47;;
71106;SDS011;58763;47.982;11.516;2023-12-07T13:25:11;5.90;;;2.75;;
71106;SDS011;58763;47.982;11.516;2023-12-07T13:27:40;5.05;;;2.42;;
71106;SDS011;58763;47.982;11.516;2023-12-07T13:30:06;5.85;;;2.95;;
71106;SDS011;58763;47.982;11.516;2023-12-07T13:32:33;5.18;;;2.53;;
71106;SDS011;58763;47.982;11.516;2023-12-07T13:35:02;4.53;;;2.55;;
71106;SDS011;58763;47.982;11.516;2023-12-07T13:37:28;6.85;;;2.90;;
71106;SDS011;58763;47.982;11.516;2023-12-07T13:39:54;4.97;;;2.80;;
71106;SDS011;58763;47.982;11.516;2023-12-07T13:42:26;5.13;;;2.50;;
71106;SDS011;58763;47.982;11.516;2023-12-07T13:44:56;4.72;;;2.35;;
71106;SDS011;58763;47.982;11.516;2023-12-07T13:47:25;4.43;;;2.50;;
71106;SDS011;58763;47.982;11.516;2023-12-07T13:50:00;5.53;;;3.00;;
71106;SDS011;58763;47.982;11.516;2023-12-07T13:52:26;6.33;;;3.10;;
71106;SDS011;58763;47.982;11.516;2023-12-07T13:54:54;7.32;;;2.90;;
71106;SDS011;58763;47.982;11.516;2023-12-07T13:57:20;6.40;;;2.95;;
71106;SDS011;58763;47.982;11.516;2023-12-07T13:59:50;5.05;;;2.90;;
71106;SDS011;58763;47.982;11.516;2023-12-07T14:02:16;4.75;;;2.53;;
71106;SDS011;58763;47.982;11.516;2023-12-07T14:04:43;5.75;;;2.90;;
71106;SDS011;58763;47.982;11.516;2023-12-07T14:07:09;5.90;;;2.97;;
71106;SDS011;58763;47.982;11.516;2023-12-07T14:12:06;6.10;;;3.05;;
71106;SDS011;58763;47.982;11.516;2023-12-07T14:14:32;6.50;;;3.42;;
71106;SDS011;58763;47.982;11.516;2023-12-07T14:16:58;6.38;;;3.38;;
71106;SDS011;58763;47.982;11.516;2023-12-07T14:19:23;7.22;;;3.70;;
71106;SDS011;58763;47.982;11.516;2023-12-07T14:21:49;6.60;;;3.70;;
71106;SDS011;58763;47.982;11.516;2023-12-07T14:24:15;6.45;;;3.72;;
71106;SDS011;58763;47.982;11.516;2023-12-07T14:26:43;7.60;;;4.20;;
71106;SDS011;58763;47.982;11.516;2023-12-07T14:29:09;8.50;;;4.30;;
71106;SDS011;58763;47.982;11.516;2023-12-07T14:31:43;9.35;;;4.25;;
71106;SDS011;58763;47.982;11.516;2023-12-07T14:34:10;8.90;;;4.90;;
71106;SDS011;58763;47.982;11.516;2023-12-07T14:36:36;8.02;;;4.88;;
71106;SDS011;58763;47.982;11.516;2023-12-07T14:39:04;8.77;;;4.95;;